Weather at Lester B. Pearson International Airport

Public forecast

Using degrees Celsius for public forecast. Weather courtesy of forecast.io.

Current aviation weather report (METAR) for Lester B. Pearson International Airport

Retrieved 2020/10/31 00:00 UTC (24 minutes ago):

CYYZ 310000Z 33014KT 15SM BKN029 01/M06 A3027 RMK SC6 SLP260

Aviation forecast (TAF) for Lester B. Pearson International Airport

Retrieved 2020-10-31 00:39 UTC (0 seconds ago):

TAF CYYZ 302338Z 3100/0106 34012KT P6SM BKN030 TEMPO 3100/3102 BKN020 FM310300 35007KT P6SM SCT040 FM310600 32005KT P6SM FEW030 FM310800 VRB03KT P6SM SKC BECMG 3113/3115 20007KT FM311800 18010KT P6SM FEW040 BECMG 3118/3120 18010G20KT FM312300 18015KT P6SM BKN040 FM010200 20010G20KT P6SM SCT030 FM010500 20015G25KT P6SM FEW050 BKN150 RMK NXT FCST BY 310300Z